Time;durP1;ratioP1;P1;durP2;ratioP2;P2;SDS_P1;SDS_P2;PMS_P1;PMS_P2;Temp;Humidity;BMP_temperature;BMP_pressure;BME280_temperature;BME280_humidity;BME280_pressure;Samples;Min_cycle;Max_cycle;Signal;HPM_P1;HPM_P2
2021/06/05 00:00:54;;;;;;;5.20;4.57;;;17.10;99.90;;;;;;5031653;28;20056;-76
2021/06/05 00:03:21;;;;;;;4.85;4.45;;;17.10;99.90;;;;;;5022076;28;20052;-77
2021/06/05 00:05:53;;;;;;;5.75;4.70;;;17.10;99.90;;;;;;5017408;28;20041;-77
2021/06/05 00:08:20;;;;;;;5.10;4.60;;;17.00;99.90;;;;;;5030530;28;20063;-77
2021/06/05 00:10:58;;;;;;;5.45;4.90;;;17.10;99.90;;;;;;5023134;28;20084;-77
2021/06/05 00:13:38;;;;;;;5.20;4.38;;;17.00;99.90;;;;;;5020207;28;20096;-77
2021/06/05 00:16:06;;;;;;;4.95;4.45;;;17.00;99.90;;;;;;5021986;28;20091;-77
2021/06/05 00:18:32;;;;;;;5.35;4.85;;;17.00;99.90;;;;;;5022146;28;20121;-76
2021/06/05 00:20:58;;;;;;;5.35;4.25;;;17.00;99.90;;;;;;5033369;28;20029;-77
2021/06/05 00:23:25;;;;;;;5.15;4.63;;;17.00;99.90;;;;;;5026735;28;20064;-77
2021/06/05 00:25:52;;;;;;;5.72;5.15;;;17.00;99.90;;;;;;5031554;28;20021;-77
2021/06/05 00:28:19;;;;;;;5.93;5.22;;;16.90;99.90;;;;;;5012095;28;20026;-77
2021/06/05 00:30:45;;;;;;;4.85;4.35;;;17.00;99.90;;;;;;5028682;28;20418;-77
2021/06/05 00:33:12;;;;;;;5.13;4.63;;;16.90;99.90;;;;;;5028920;28;20038;-77
2021/06/05 00:35:39;;;;;;;6.50;4.97;;;16.90;99.90;;;;;;5021665;28;20032;-77
2021/06/05 00:38:07;;;;;;;5.22;4.72;;;16.90;99.90;;;;;;5029068;28;20429;-77
2021/06/05 00:40:38;;;;;;;7.97;4.80;;;16.80;99.90;;;;;;5023995;28;20124;-77
2021/06/05 00:43:05;;;;;;;8.07;5.35;;;16.80;99.90;;;;;;5054287;28;20034;-77
2021/06/05 00:45:35;;;;;;;6.35;5.13;;;16.70;99.90;;;;;;5019936;28;20018;-77
2021/06/05 00:48:02;;;;;;;5.05;4.55;;;16.70;99.90;;;;;;5019653;28;20593;-77
2021/06/05 00:50:33;;;;;;;6.45;4.93;;;16.70;99.90;;;;;;5023401;28;20060;-77
2021/06/05 00:53:02;;;;;;;6.07;5.00;;;16.60;99.90;;;;;;5002454;28;20116;-77
2021/06/05 00:55:31;;;;;;;6.18;4.75;;;16.60;99.90;;;;;;5020770;28;20036;-77
2021/06/05 00:57:57;;;;;;;4.60;4.10;;;16.60;99.90;;;;;;5004362;28;20547;-77
2021/06/05 01:00:42;;;;;;;5.20;4.60;;;16.50;99.90;;;;;;5021260;28;20128;-77
2021/06/05 01:03:09;;;;;;;6.00;5.40;;;16.50;99.90;;;;;;5021472;28;20045;-78
2021/06/05 01:05:38;;;;;;;6.93;4.57;;;16.40;99.90;;;;;;5028860;28;20461;-77
2021/06/05 01:08:30;;;;;;;5.30;4.80;;;16.40;99.90;;;;;;5025500;28;20033;-77
2021/06/05 01:11:11;;;;;;;6.20;4.57;;;16.30;99.90;;;;;;5022594;28;20025;-77
2021/06/05 01:13:46;;;;;;;6.13;5.32;;;16.20;99.90;;;;;;5021472;28;20033;-77
2021/06/05 01:16:17;;;;;;;5.93;5.32;;;16.20;99.90;;;;;;5019555;28;20551;-77
2021/06/05 01:18:51;;;;;;;6.53;5.70;;;16.10;99.90;;;;;;5019029;28;20611;-77
2021/06/05 01:21:45;;;;;;;6.57;5.13;;;16.10;99.90;;;;;;5025227;28;20037;-77
2021/06/05 01:24:30;;;;;;;5.75;5.15;;;16.00;99.90;;;;;;5025444;28;20546;-77
2021/06/05 01:27:02;;;;;;;6.87;5.43;;;16.00;99.90;;;;;;5028787;28;20057;-77
2021/06/05 01:29:41;;;;;;;6.25;5.60;;;15.90;99.90;;;;;;5019222;28;20034;-77
2021/06/05 01:32:11;;;;;;;6.32;4.90;;;15.90;99.90;;;;;;5002138;28;20034;-77
2021/06/05 01:34:45;;;;;;;5.10;4.63;;;15.90;99.90;;;;;;5020124;28;20509;-77
2021/06/05 01:37:16;;;;;;;6.43;5.22;;;15.80;99.90;;;;;;5019153;28;20057;-77
2021/06/05 01:39:50;;;;;;;7.45;5.22;;;15.90;99.90;;;;;;5003979;28;20506;-77
2021/06/05 01:42:29;;;;;;;5.75;5.15;;;15.80;99.90;;;;;;5021147;28;20061;-77
2021/06/05 01:44:59;;;;;;;6.13;5.50;;;15.80;99.90;;;;;;5014137;28;20029;-78
2021/06/05 01:47:25;;;;;;;5.53;5.03;;;15.70;99.90;;;;;;5027402;28;20037;-78
2021/06/05 01:49:53;;;;;;;6.25;5.55;;;15.60;99.90;;;;;;5025070;28;20052;-78
2021/06/05 01:52:31;;;;;;;7.55;5.28;;;15.60;99.90;;;;;;5023792;28;20030;-77
2021/06/05 01:55:07;;;;;;;7.65;5.40;;;15.60;99.90;;;;;;5018557;28;20509;-78
2021/06/05 01:57:38;;;;;;;7.50;5.30;;;15.50;99.90;;;;;;5010648;28;20034;-78
2021/06/05 02:00:34;;;;;;;7.22;5.88;;;15.50;99.90;;;;;;5029028;28;20042;-78
2021/06/05 02:03:04;;;;;;;8.13;6.22;;;15.40;99.90;;;;;;5034295;28;20026;-78
2021/06/05 02:05:33;;;;;;;6.20;5.57;;;15.40;99.90;;;;;;5016557;28;20089;-78
2021/06/05 02:08:06;;;;;;;6.57;5.65;;;15.30;99.90;;;;;;5023971;28;20723;-78
2021/06/05 02:10:34;;;;;;;5.90;5.05;;;15.30;99.90;;;;;;5026346;28;20037;-77
2021/06/05 02:13:06;;;;;;;5.65;5.15;;;15.30;99.90;;;;;;4994437;28;20464;-78
2021/06/05 02:16:03;;;;;;;7.30;6.03;;;15.40;99.90;;;;;;5027392;28;20022;-77
2021/06/05 02:18:35;;;;;;;8.85;6.88;;;15.30;99.90;;;;;;5025889;28;20060;-78
2021/06/05 02:21:12;;;;;;;8.15;5.78;;;15.10;99.90;;;;;;5032023;28;20505;-77
2021/06/05 02:24:00;;;;;;;7.32;6.18;;;14.90;99.90;;;;;;5033278;28;20048;-78
2021/06/05 02:26:26;;;;;;;6.95;6.07;;;14.90;99.90;;;;;;5028803;28;20037;-78
2021/06/05 02:28:57;;;;;;;5.75;5.15;;;14.90;99.90;;;;;;5029906;28;20501;-78
2021/06/05 02:31:26;;;;;;;9.93;6.32;;;14.90;99.90;;;;;;5033178;28;20112;-78
2021/06/05 02:33:57;;;;;;;8.20;5.80;;;14.90;99.90;;;;;;5020145;28;20036;-78
2021/06/05 02:36:23;;;;;;;7.03;5.90;;;14.90;99.90;;;;;;5027315;28;20111;-78
2021/06/05 02:38:52;;;;;;;6.25;5.57;;;14.90;99.90;;;;;;5029791;28;20160;-78
2021/06/05 02:41:23;;;;;;;8.68;6.50;;;14.90;99.90;;;;;;5027109;28;20035;-78
2021/06/05 02:43:52;;;;;;;7.25;6.40;;;14.90;99.90;;;;;;5026856;28;20026;-78
2021/06/05 02:46:29;;;;;;;7.65;6.43;;;15.00;99.90;;;;;;5033023;28;20044;-78
2021/06/05 02:49:02;;;;;;;7.40;6.40;;;14.90;99.90;;;;;;5029649;28;20087;-78
2021/06/05 02:51:40;;;;;;;6.90;6.20;;;14.90;99.90;;;;;;5027111;28;20026;-77
2021/06/05 02:54:08;;;;;;;7.75;6.32;;;14.90;99.90;;;;;;5010014;28;20034;-78
2021/06/05 02:56:35;;;;;;;9.18;7.47;;;14.80;99.90;;;;;;5037078;28;20060;-78
2021/06/05 02:59:01;;;;;;;6.50;5.85;;;14.90;99.90;;;;;;5022058;28;20031;-78
2021/06/05 03:01:34;;;;;;;7.47;6.55;;;14.90;99.90;;;;;;5026962;28;20553;-78
2021/06/05 03:04:01;;;;;;;6.88;5.88;;;14.90;99.90;;;;;;5030973;28;20183;-78
2021/06/05 03:06:29;;;;;;;6.10;5.25;;;14.70;99.90;;;;;;5031858;28;20040;-77
2021/06/05 03:08:57;;;;;;;6.65;5.65;;;14.70;99.90;;;;;;5028814;28;20494;-78
2021/06/05 03:11:26;;;;;;;6.90;5.15;;;14.70;99.90;;;;;;5016162;28;20080;-77
2021/06/05 03:13:54;;;;;;;6.63;5.18;;;14.60;99.90;;;;;;5011963;28;20030;-78
2021/06/05 03:16:21;;;;;;;6.53;5.82;;;14.70;99.90;;;;;;5026820;28;20030;-78
2021/06/05 03:18:53;;;;;;;5.68;4.97;;;14.60;99.90;;;;;;5027459;28;20026;-78
2021/06/05 03:21:20;;;;;;;5.95;5.30;;;14.60;99.90;;;;;;5030876;28;20083;-78
2021/06/05 03:23:50;;;;;;;7.80;6.05;;;14.60;99.90;;;;;;5028275;28;20018;-77
2021/06/05 03:26:26;;;;;;;7.78;5.40;;;14.60;99.90;;;;;;5026124;28;20022;-78
2021/06/05 03:28:52;;;;;;;7.07;5.55;;;14.60;99.90;;;;;;5026765;28;20026;-78
2021/06/05 03:31:21;;;;;;;9.38;5.55;;;14.60;99.90;;;;;;5029140;28;20102;-78
2021/06/05 03:33:48;;;;;;;7.30;5.68;;;14.70;99.90;;;;;;5008887;28;20029;-76
2021/06/05 03:36:17;;;;;;;7.70;5.50;;;14.70;99.90;;;;;;5036240;28;20032;-78
2021/06/05 03:38:44;;;;;;;6.55;5.43;;;14.70;99.90;;;;;;5033617;28;20029;-78
2021/06/05 03:41:21;;;;;;;7.38;6.20;;;14.70;99.90;;;;;;5029120;28;20260;-78
2021/06/05 03:43:47;;;;;;;6.28;5.63;;;14.70;99.90;;;;;;5020789;28;20025;-77
2021/06/05 03:46:13;;;;;;;7.30;5.95;;;14.70;99.90;;;;;;5033638;28;20026;-78
2021/06/05 03:48:39;;;;;;;6.10;5.18;;;14.80;99.90;;;;;;5003082;28;20033;-77
2021/06/05 03:51:09;;;;;;;5.75;5.18;;;14.80;99.90;;;;;;5028891;28;20438;-78
2021/06/05 03:53:37;;;;;;;7.45;5.65;;;14.90;99.90;;;;;;5026894;28;20033;-78
2021/06/05 03:56:04;;;;;;;9.10;6.57;;;14.90;99.90;;;;;;5008700;28;20548;-78
2021/06/05 03:58:40;;;;;;;6.63;5.90;;;14.90;99.90;;;;;;5032377;28;20026;-78
2021/06/05 04:01:19;;;;;;;7.47;6.40;;;14.90;99.90;;;;;;5030955;28;20047;-78
2021/06/05 04:03:45;;;;;;;7.97;6.93;;;14.90;99.90;;;;;;5023762;28;20029;-77
2021/06/05 04:06:13;;;;;;;6.47;5.88;;;14.80;99.90;;;;;;5026074;28;20033;-77
2021/06/05 04:08:39;;;;;;;7.45;6.30;;;14.90;99.90;;;;;;5026980;28;20080;-78
2021/06/05 04:11:06;;;;;;;7.18;5.38;;;14.90;99.90;;;;;;5035061;28;20175;-78
2021/06/05 04:13:32;;;;;;;8.77;6.25;;;15.00;99.90;;;;;;5031333;28;20045;-77
2021/06/05 04:15:58;;;;;;;7.28;5.80;;;15.10;99.90;;;;;;5029506;28;20038;-77
2021/06/05 04:18:29;;;;;;;6.55;5.88;;;15.20;99.90;;;;;;5029385;28;20245;-78
2021/06/05 04:20:55;;;;;;;7.53;6.70;;;15.40;99.90;;;;;;5030673;28;20041;-78
2021/06/05 04:23:21;;;;;;;8.00;5.75;;;15.50;99.90;;;;;;5028963;28;20364;-78
2021/06/05 04:25:47;;;;;;;7.07;5.18;;;15.50;99.90;;;;;;5038795;28;20093;-78
2021/06/05 04:28:15;;;;;;;5.85;4.65;;;15.60;99.90;;;;;;5033011;28;20029;-78
2021/06/05 04:30:43;;;;;;;4.53;4.10;;;15.70;99.90;;;;;;5033470;28;20445;-78
2021/06/05 04:33:11;;;;;;;6.80;5.03;;;15.70;99.90;;;;;;5031968;28;20093;-77
2021/06/05 04:35:37;;;;;;;6.43;5.82;;;15.80;99.90;;;;;;5030989;28;20069;-78
2021/06/05 04:38:03;;;;;;;5.70;5.10;;;15.90;99.90;;;;;;5028276;28;20028;-78
2021/06/05 04:40:29;;;;;;;9.50;6.28;;;15.90;99.90;;;;;;5029718;28;20126;-78
2021/06/05 04:42:55;;;;;;;8.02;6.00;;;15.90;99.90;;;;;;5024784;28;20049;-78
2021/06/05 04:45:21;;;;;;;6.30;5.30;;;15.90;99.90;;;;;;5029667;28;20299;-78
2021/06/05 04:47:48;;;;;;;5.07;4.55;;;16.00;99.90;;;;;;5032065;28;20390;-78
2021/06/05 04:50:18;;;;;;;6.68;5.03;;;16.20;99.90;;;;;;5020224;28;20037;-78
2021/06/05 04:52:44;;;;;;;6.63;4.95;;;16.20;99.90;;;;;;5035279;28;20036;-77
2021/06/05 04:55:11;;;;;;;5.07;4.35;;;16.30;99.90;;;;;;5033757;28;20057;-78
2021/06/05 04:57:37;;;;;;;6.65;5.50;;;16.40;99.90;;;;;;5029906;28;20049;-78
2021/06/05 05:00:13;;;;;;;6.70;6.00;;;16.50;99.90;;;;;;5028033;28;20040;-78
2021/06/05 05:02:40;;;;;;;6.80;5.80;;;16.60;99.90;;;;;;5025060;28;20324;-78
2021/06/05 05:05:06;;;;;;;6.15;5.07;;;16.70;99.90;;;;;;5028614;28;20081;-77
2021/06/05 05:07:32;;;;;;;10.35;6.35;;;16.80;99.90;;;;;;5027152;28;20018;-77
2021/06/05 05:09:58;;;;;;;9.07;7.10;;;16.90;99.90;;;;;;5030820;28;20089;-77
2021/06/05 05:12:24;;;;;;;8.60;7.53;;;17.10;99.90;;;;;;5034403;28;20677;-78
2021/06/05 05:14:50;;;;;;;9.20;8.05;;;17.20;99.90;;;;;;5032584;28;20034;-78
2021/06/05 05:17:15;;;;;;;11.88;9.00;;;17.20;99.90;;;;;;5034557;28;20034;-77
2021/06/05 05:19:41;;;;;;;10.75;8.95;;;17.30;99.90;;;;;;5035614;28;20030;-77
2021/06/05 05:22:07;;;;;;;9.75;8.00;;;17.50;99.90;;;;;;5016186;28;20125;-77
2021/06/05 05:24:33;;;;;;;11.38;8.70;;;17.70;99.90;;;;;;5036105;28;20448;-78
2021/06/05 05:26:59;;;;;;;13.02;8.77;;;17.90;99.90;;;;;;5034505;28;20071;-78
2021/06/05 05:29:24;;;;;;;10.15;8.15;;;18.20;99.90;;;;;;5024414;28;20033;-78
2021/06/05 05:31:50;;;;;;;7.95;7.03;;;18.60;99.90;;;;;;5028130;28;20034;-78
2021/06/05 05:34:16;;;;;;;11.48;7.82;;;19.00;99.90;;;;;;5022642;28;20034;-78
2021/06/05 05:36:42;;;;;;;8.30;7.22;;;19.10;99.90;;;;;;5031811;28;20045;-78
2021/06/05 05:39:14;;;;;;;10.25;7.22;;;19.20;99.90;;;;;;5028158;28;20066;-78
2021/06/05 05:41:41;;;;;;;9.27;7.22;;;19.10;99.90;;;;;;5029207;28;20030;-77
2021/06/05 05:44:07;;;;;;;7.95;6.00;;;19.00;99.90;;;;;;5027147;28;20320;-78
2021/06/05 05:46:33;;;;;;;6.38;5.65;;;19.10;99.90;;;;;;5025455;28;20056;-77
2021/06/05 05:48:59;;;;;;;8.68;7.65;;;19.30;99.90;;;;;;5031376;28;20053;-78
2021/06/05 05:51:26;;;;;;;8.10;6.82;;;19.50;99.90;;;;;;5030635;28;20022;-78
2021/06/05 05:53:53;;;;;;;7.47;6.47;;;19.50;99.90;;;;;;5039298;28;20025;-77
2021/06/05 05:56:22;;;;;;;7.85;7.00;;;19.70;99.90;;;;;;5027271;28;20417;-78
2021/06/05 05:58:50;;;;;;;9.57;7.35;;;19.80;99.90;;;;;;5035549;28;20026;-78
2021/06/05 06:01:21;;;;;;;8.52;7.20;;;19.90;99.90;;;;;;5036593;28;20038;-77
2021/06/05 06:03:52;;;;;;;7.32;6.35;;;19.70;99.90;;;;;;5033988;28;20513;-77
2021/06/05 06:06:19;;;;;;;8.25;6.80;;;19.60;99.90;;;;;;5032985;28;20026;-78
2021/06/05 06:08:45;;;;;;;7.90;6.72;;;19.70;99.90;;;;;;5036032;28;20429;-78
2021/06/05 06:11:12;;;;;;;8.55;6.78;;;19.90;99.90;;;;;;5028950;28;20097;-78
2021/06/05 06:13:38;;;;;;;7.00;6.03;;;20.10;99.90;;;;;;5032558;28;20124;-78
2021/06/05 06:16:07;;;;;;;9.90;6.88;;;20.30;99.90;;;;;;5031722;28;20102;-77
2021/06/05 06:18:34;;;;;;;8.45;6.20;;;20.70;99.90;;;;;;5032201;28;20041;-78
2021/06/05 06:21:00;;;;;;;7.20;5.95;;;21.30;99.90;;;;;;5033455;28;20044;-77
2021/06/05 06:23:29;;;;;;;5.80;5.18;;;22.20;99.90;;;;;;5022460;28;20053;-77
2021/06/05 06:25:57;;;;;;;5.47;4.97;;;23.20;99.90;;;;;;5040413;28;20599;-77
2021/06/05 06:28:26;;;;;;;5.60;4.40;;;24.20;99.90;;;;;;5041536;28;20029;-78
2021/06/05 06:30:53;;;;;;;4.93;4.50;;;25.30;99.90;;;;;;5038234;28;20036;-78
2021/06/05 06:33:20;;;;;;;5.13;4.00;;;26.40;99.90;;;;;;5042417;28;20030;-78
2021/06/05 06:35:46;;;;;;;3.38;3.03;;;27.00;99.90;;;;;;5042177;28;20029;-79
2021/06/05 06:38:20;;;;;;;4.25;2.88;;;27.70;97.50;;;;;;5041435;28;20022;-78
2021/06/05 06:40:47;;;;;;;3.20;2.90;;;27.60;91.40;;;;;;5040850;28;20040;-79
2021/06/05 06:43:17;;;;;;;3.53;3.15;;;27.50;92.30;;;;;;5037400;28;20080;-77
2021/06/05 06:45:56;;;;;;;3.97;2.92;;;27.40;91.30;;;;;;5040307;28;20021;-78
2021/06/05 06:48:23;;;;;;;3.42;3.13;;;27.20;90.30;;;;;;5037007;28;20021;-78
2021/06/05 06:50:49;;;;;;;2.60;2.40;;;26.70;85.90;;;;;;5042885;28;20037;-78
2021/06/05 06:53:17;;;;;;;2.42;2.22;;;26.20;90.00;;;;;;5038521;28;20048;-78
2021/06/05 06:55:43;;;;;;;3.28;2.83;;;26.00;90.90;;;;;;5039111;28;20042;-77
2021/06/05 06:58:09;;;;;;;3.03;2.75;;;26.20;91.30;;;;;;5037959;28;20033;-79
2021/06/05 07:00:40;;;;;;;2.65;2.45;;;26.70;90.10;;;;;;5035793;28;20025;-78
2021/06/05 07:03:06;;;;;;;2.90;2.70;;;27.30;87.20;;;;;;5036709;28;20037;-79
2021/06/05 07:05:32;;;;;;;3.13;2.92;;;27.70;87.30;;;;;;5036575;28;20034;-78
2021/06/05 07:08:25;;;;;;;3.33;3.03;;;28.40;81.90;;;;;;5034440;28;20041;-78
2021/06/05 07:10:54;;;;;;;4.03;3.63;;;28.50;79.00;;;;;;5027111;28;20183;-78
2021/06/05 07:13:20;;;;;;;3.30;3.00;;;28.70;79.40;;;;;;5020881;28;20132;-77
2021/06/05 07:15:46;;;;;;;3.78;3.47;;;29.00;76.20;;;;;;5021146;28;20054;-78
2021/06/05 07:18:14;;;;;;;3.55;3.17;;;29.10;75.70;;;;;;5020452;28;20472;-77
2021/06/05 07:20:40;;;;;;;4.10;3.75;;;28.90;74.90;;;;;;5028577;28;20068;-77
2021/06/05 07:23:07;;;;;;;3.30;2.97;;;28.50;75.40;;;;;;5029896;28;20435;-78
2021/06/05 07:25:34;;;;;;;4.00;2.88;;;28.00;77.20;;;;;;5027154;28;20042;-77
2021/06/05 07:28:15;;;;;;;3.05;2.75;;;27.70;78.00;;;;;;5027512;28;20045;-77
2021/06/05 07:30:41;;;;;;;6.40;3.50;;;27.40;78.30;;;;;;5032397;28;20025;-78
2021/06/05 07:33:06;;;;;;;4.35;3.90;;;27.00;79.20;;;;;;5035244;28;20026;-78
2021/06/05 07:35:32;;;;;;;4.70;3.75;;;26.70;81.10;;;;;;5028222;28;20049;-78
2021/06/05 07:37:58;;;;;;;4.20;3.80;;;26.30;82.50;;;;;;5032788;28;20087;-77
2021/06/05 07:40:23;;;;;;;3.65;3.35;;;26.00;83.70;;;;;;5033380;28;20049;-78
2021/06/05 07:42:49;;;;;;;4.93;3.53;;;26.00;85.30;;;;;;5032432;28;20034;-78
2021/06/05 07:45:15;;;;;;;4.20;3.90;;;25.70;85.20;;;;;;5033087;28;20033;-78
2021/06/05 07:47:40;;;;;;;6.18;5.18;;;25.60;85.90;;;;;;5042236;28;20029;-78
2021/06/05 07:50:11;;;;;;;4.75;4.25;;;25.40;86.00;;;;;;5041612;28;20040;-77
2021/06/05 07:52:37;;;;;;;9.32;5.28;;;25.50;88.30;;;;;;5038841;28;20062;-77
2021/06/05 07:55:04;;;;;;;5.75;4.72;;;25.50;85.50;;;;;;5032591;28;20561;-79
2021/06/05 07:57:30;;;;;;;5.30;4.60;;;25.70;88.40;;;;;;5042961;28;20085;-78
2021/06/05 07:59:56;;;;;;;8.05;6.13;;;25.90;86.10;;;;;;5038846;28;20062;-78
2021/06/05 08:02:21;;;;;;;6.32;4.82;;;25.80;85.40;;;;;;5037828;28;20026;-78
2021/06/05 08:04:47;;;;;;;5.72;4.28;;;26.10;88.70;;;;;;5017895;28;20029;-79
2021/06/05 08:07:13;;;;;;;5.53;4.32;;;26.60;87.60;;;;;;5037998;28;20033;-78
2021/06/05 08:09:39;;;;;;;4.57;4.15;;;27.10;87.50;;;;;;5039684;28;20096;-78
2021/06/05 08:12:06;;;;;;;4.63;4.22;;;27.50;82.90;;;;;;5032846;28;20088;-77
2021/06/05 08:14:32;;;;;;;4.80;4.30;;;27.70;82.40;;;;;;5030086;28;20033;-78
2021/06/05 08:16:57;;;;;;;6.32;5.60;;;27.90;80.20;;;;;;5037757;28;20033;-78
2021/06/05 08:19:24;;;;;;;6.80;4.15;;;27.60;80.20;;;;;;5037773;28;20041;-79
2021/06/05 08:21:49;;;;;;;5.70;4.97;;;27.30;86.80;;;;;;5039265;28;20513;-79
2021/06/05 08:24:17;;;;;;;5.57;4.45;;;27.00;81.50;;;;;;5039726;28;20036;-77
2021/06/05 08:26:43;;;;;;;6.32;5.15;;;27.00;84.00;;;;;;5031115;28;20486;-76
2021/06/05 08:29:09;;;;;;;4.97;4.22;;;26.90;80.30;;;;;;5013737;28;20118;-78
2021/06/05 08:31:37;;;;;;;5.75;5.25;;;26.90;85.80;;;;;;5038825;28;20033;-78
2021/06/05 08:34:03;;;;;;;4.45;4.05;;;26.90;81.40;;;;;;5036561;28;20029;-78
2021/06/05 08:36:30;;;;;;;3.95;3.60;;;26.80;85.10;;;;;;5039359;28;20033;-77
2021/06/05 08:38:56;;;;;;;3.78;3.42;;;26.90;88.40;;;;;;5039341;28;20048;-78
2021/06/05 08:41:27;;;;;;;4.13;3.83;;;27.00;83.60;;;;;;5039575;28;20097;-78
2021/06/05 08:44:03;;;;;;;4.85;4.00;;;27.00;84.00;;;;;;5035740;28;20056;-77
2021/06/05 08:46:34;;;;;;;4.15;3.60;;;27.10;84.50;;;;;;5031397;28;20025;-77
2021/06/05 08:49:03;;;;;;;4.03;3.35;;;27.00;85.00;;;;;;5033690;28;20032;-78
2021/06/05 08:51:53;;;;;;;4.38;3.97;;;26.80;84.20;;;;;;5033640;28;20480;-77
2021/06/05 08:54:31;;;;;;;4.53;4.13;;;26.70;83.10;;;;;;5033164;28;20013;-79
2021/06/05 08:57:24;;;;;;;4.80;4.30;;;26.60;84.70;;;;;;5033018;28;20037;-77
2021/06/05 08:59:51;;;;;;;4.50;4.10;;;26.40;85.90;;;;;;5027232;28;20041;-78
2021/06/05 09:02:22;;;;;;;5.57;5.05;;;26.40;85.80;;;;;;5036776;28;20026;-79
2021/06/05 09:04:47;;;;;;;6.38;4.97;;;26.40;84.80;;;;;;5037174;28;20025;-78
2021/06/05 09:07:15;;;;;;;6.32;4.50;;;26.50;88.50;;;;;;5037241;28;20121;-78
2021/06/05 09:09:43;;;;;;;70.47;22.23;;;26.60;88.40;;;;;;5033976;28;20498;-77
2021/06/05 09:12:11;;;;;;;11.73;5.72;;;26.70;88.30;;;;;;5013624;28;20082;-77
2021/06/05 09:14:37;;;;;;;6.72;4.72;;;26.90;86.20;;;;;;5035573;28;20040;-78
2021/06/05 09:17:19;;;;;;;11.00;5.38;;;27.00;88.80;;;;;;5032765;28;20486;-78
2021/06/05 09:20:04;;;;;;;6.45;5.45;;;26.90;86.60;;;;;;5035687;28;20348;-77
2021/06/05 09:22:36;;;;;;;6.90;4.18;;;26.90;84.90;;;;;;5034804;28;20029;-77
2021/06/05 09:25:20;;;;;;;5.95;5.18;;;27.00;89.70;;;;;;5035520;28;20040;-78
2021/06/05 09:27:47;;;;;;;8.77;5.35;;;27.00;88.00;;;;;;5037097;28;20025;-77
2021/06/05 09:30:26;;;;;;;6.00;4.53;;;27.10;88.10;;;;;;5033033;28;20056;-77
2021/06/05 09:33:02;;;;;;;6.72;4.88;;;27.10;89.00;;;;;;5037028;28;20055;-78
2021/06/05 09:35:33;;;;;;;5.70;4.28;;;27.00;86.50;;;;;;5038390;28;20041;-78
2021/06/05 09:38:32;;;;;;;5.55;5.03;;;26.80;86.40;;;;;;5037356;28;20101;-79
2021/06/05 09:41:12;;;;;;;3.78;3.47;;;26.70;86.10;;;;;;5035795;28;20039;-79
2021/06/05 09:43:40;;;;;;;6.80;4.70;;;26.70;90.10;;;;;;5036305;28;20085;-78
2021/06/05 09:46:28;;;;;;;4.72;4.28;;;26.60;88.70;;;;;;5033977;28;20021;-78
2021/06/05 09:49:10;;;;;;;4.82;4.30;;;26.50;90.10;;;;;;5036598;28;20052;-77
2021/06/05 09:51:39;;;;;;;5.30;4.45;;;26.40;90.40;;;;;;5032446;28;20072;-78
2021/06/05 09:54:15;;;;;;;7.07;4.88;;;26.50;91.30;;;;;;5037775;28;20096;-79
2021/06/05 09:56:48;;;;;;;7.05;4.20;;;26.60;90.20;;;;;;5036052;28;20481;-77
2021/06/05 09:59:15;;;;;;;8.48;4.57;;;26.60;91.00;;;;;;5033928;28;20128;-77
2021/06/05 10:01:54;;;;;;;5.15;4.65;;;26.40;86.80;;;;;;5035940;28;20017;-79
2021/06/05 10:04:21;;;;;;;6.63;4.10;;;26.30;90.90;;;;;;5030303;28;20097;-78
2021/06/05 10:06:53;;;;;;;4.10;3.80;;;26.30;91.80;;;;;;5037445;28;20840;-77
2021/06/05 10:09:25;;;;;;;7.22;4.18;;;26.30;92.00;;;;;;5039458;28;20049;-77
2021/06/05 10:12:11;;;;;;;4.97;4.00;;;26.40;92.30;;;;;;5031818;28;20025;-77
2021/06/05 10:14:56;;;;;;;5.20;4.07;;;26.60;91.90;;;;;;5035743;28;20085;-77
2021/06/05 10:17:46;;;;;;;4.63;4.20;;;26.60;91.00;;;;;;5033435;28;20025;-77
2021/06/05 10:20:30;;;;;;;4.63;4.22;;;26.70;91.30;;;;;;5036849;28;20037;-77
2021/06/05 10:22:58;;;;;;;5.10;4.50;;;26.90;89.80;;;;;;5038754;28;20037;-78
2021/06/05 10:25:40;;;;;;;5.07;4.57;;;27.00;90.30;;;;;;5031803;28;20109;-78
2021/06/05 10:28:15;;;;;;;4.38;3.97;;;27.00;90.60;;;;;;5031356;28;20041;-77
2021/06/05 10:30:55;;;;;;;10.38;6.72;;;27.00;91.00;;;;;;5038471;28;20084;-78
2021/06/05 10:33:39;;;;;;;6.63;4.35;;;27.00;87.30;;;;;;5032834;28;20084;-77
2021/06/05 10:36:17;;;;;;;5.85;5.22;;;26.70;89.70;;;;;;5032057;28;20044;-78
2021/06/05 10:38:53;;;;;;;7.25;5.15;;;26.40;88.90;;;;;;5029497;28;20061;-78
2021/06/05 10:41:24;;;;;;;5.50;4.88;;;26.30;90.90;;;;;;5027489;28;20108;-77
2021/06/05 10:43:51;;;;;;;6.97;6.20;;;26.20;92.90;;;;;;5035759;28;20026;-78
2021/06/05 10:46:23;;;;;;;5.72;5.03;;;26.20;88.70;;;;;;5034574;28;20030;-78
2021/06/05 10:48:51;;;;;;;6.35;4.78;;;26.00;91.30;;;;;;5032587;28;20516;-78
2021/06/05 10:51:25;;;;;;;6.35;4.88;;;26.20;90.80;;;;;;5037333;28;20029;-78
2021/06/05 10:53:57;;;;;;;4.25;3.90;;;26.40;90.70;;;;;;5032252;28;20052;-79
2021/06/05 10:56:31;;;;;;;4.55;4.10;;;26.60;93.10;;;;;;5034990;28;20025;-76
2021/06/05 10:58:59;;;;;;;5.50;4.18;;;26.90;90.40;;;;;;5035429;28;20033;-77
2021/06/05 11:01:31;;;;;;;5.38;3.75;;;26.90;90.80;;;;;;5034731;28;20709;-79
2021/06/05 11:04:03;;;;;;;4.90;4.03;;;27.00;91.60;;;;;;5032569;28;20053;-78
2021/06/05 11:06:47;;;;;;;4.25;3.65;;;26.90;91.10;;;;;;5032073;28;20033;-77
2021/06/05 11:09:29;;;;;;;5.88;4.80;;;27.00;89.60;;;;;;5034346;28;20017;-77
2021/06/05 11:12:02;;;;;;;3.33;3.00;;;26.90;83.30;;;;;;5034279;28;20486;-78
2021/06/05 11:14:39;;;;;;;3.58;3.25;;;27.10;88.50;;;;;;5034797;28;20449;-77
2021/06/05 11:17:27;;;;;;;3.90;3.60;;;27.30;85.00;;;;;;5036371;28;20044;-77
2021/06/05 11:20:02;;;;;;;4.05;3.42;;;27.60;90.10;;;;;;5034841;28;20025;-78
2021/06/05 11:22:47;;;;;;;3.60;2.90;;;27.60;83.90;;;;;;5030902;28;20037;-78
2021/06/05 11:25:14;;;;;;;6.00;3.53;;;27.50;83.90;;;;;;5033882;28;20055;-76
2021/06/05 11:27:40;;;;;;;3.45;3.15;;;27.30;84.60;;;;;;5032739;28;20029;-78
2021/06/05 11:30:29;;;;;;;4.32;3.40;;;27.20;85.60;;;;;;5033651;28;20029;-77
2021/06/05 11:32:59;;;;;;;4.18;3.70;;;27.10;84.80;;;;;;5021751;28;20049;-78
2021/06/05 11:36:01;;;;;;;5.35;3.60;;;27.00;87.00;;;;;;5033154;28;20828;-77
2021/06/05 11:38:27;;;;;;;3.60;3.30;;;27.00;87.60;;;;;;5002919;28;20236;-78
2021/06/05 11:41:01;;;;;;;3.75;3.45;;;27.10;86.90;;;;;;5036427;28;20062;-76
2021/06/05 11:43:30;;;;;;;3.65;3.35;;;27.20;85.60;;;;;;5035367;28;20048;-77
2021/06/05 11:46:05;;;;;;;3.70;3.40;;;27.30;84.60;;;;;;5032316;28;20030;-76
2021/06/05 11:48:36;;;;;;;3.35;3.05;;;27.40;84.60;;;;;;5035337;28;20032;-77
2021/06/05 11:51:36;;;;;;;6.85;3.80;;;27.40;87.40;;;;;;5056387;28;20030;-78
2021/06/05 11:54:19;;;;;;;3.95;3.53;;;27.40;84.60;;;;;;4995157;28;20118;-78
2021/06/05 11:57:22;;;;;;;4.68;3.30;;;27.40;87.30;;;;;;5034714;28;20033;-79
2021/06/05 11:59:49;;;;;;;4.93;3.60;;;27.50;88.20;;;;;;5035186;28;20025;-77
2021/06/05 12:02:27;;;;;;;4.43;2.97;;;27.70;84.20;;;;;;5035550;28;20033;-78
2021/06/05 12:05:01;;;;;;;4.15;3.60;;;27.80;86.60;;;;;;5016692;28;20065;-76
2021/06/05 12:07:33;;;;;;;3.40;2.75;;;27.80;86.00;;;;;;5035673;28;20030;-78
2021/06/05 12:10:00;;;;;;;3.88;2.78;;;27.60;81.00;;;;;;5036121;28;20029;-77
2021/06/05 12:12:48;;;;;;;4.05;2.55;;;27.40;81.30;;;;;;5029870;28;20053;-79
2021/06/05 12:15:25;;;;;;;2.90;2.60;;;27.30;83.90;;;;;;5022613;28;20120;-78
2021/06/05 12:18:10;;;;;;;3.15;2.75;;;27.10;84.70;;;;;;5121258;27;20132;-79
2021/06/05 12:20:47;;;;;;;3.85;2.97;;;26.90;83.90;;;;;;5107985;28;20024;-78
2021/06/05 12:23:29;;;;;;;2.97;2.67;;;26.60;84.00;;;;;;5102652;28;20534;-78
2021/06/05 12:26:07;;;;;;;3.05;2.70;;;26.40;87.60;;;;;;5103905;28;20039;-78
2021/06/05 12:28:36;;;;;;;3.45;2.95;;;26.20;89.60;;;;;;5087998;28;20033;-77
2021/06/05 12:31:20;;;;;;;4.78;2.70;;;26.10;89.30;;;;;;5090294;28;20028;-78
2021/06/05 12:34:02;;;;;;;3.80;3.20;;;25.90;91.50;;;;;;5088547;28;20039;-77
2021/06/05 12:36:45;;;;;;;3.35;3.05;;;25.80;94.60;;;;;;5091074;28;20079;-78
2021/06/05 12:39:23;;;;;;;3.15;2.85;;;25.70;95.60;;;;;;5090963;28;20058;-78
2021/06/05 12:41:51;;;;;;;3.83;3.53;;;25.70;94.30;;;;;;5103066;28;20031;-78
2021/06/05 12:44:26;;;;;;;3.47;3.17;;;25.60;94.00;;;;;;5087955;28;20074;-78
2021/06/05 12:46:52;;;;;;;3.40;3.20;;;25.50;96.40;;;;;;5085503;28;20054;-78
2021/06/05 12:49:24;;;;;;;4.25;3.13;;;25.50;96.00;;;;;;5086154;28;20047;-78
2021/06/05 12:51:54;;;;;;;3.63;3.33;;;25.30;95.30;;;;;;5089895;28;20035;-76
2021/06/05 12:54:33;;;;;;;3.45;3.15;;;25.20;97.80;;;;;;5089363;28;20028;-77
2021/06/05 12:57:27;;;;;;;3.40;3.10;;;25.00;96.90;;;;;;5089872;28;20050;-78
2021/06/05 12:59:53;;;;;;;3.30;3.00;;;24.80;98.40;;;;;;5085364;28;20040;-79
2021/06/05 13:02:27;;;;;;;3.75;3.08;;;24.60;97.50;;;;;;5084821;28;20052;-77
2021/06/05 13:04:54;;;;;;;5.55;3.30;;;24.40;97.00;;;;;;5090018;28;20062;-78
2021/06/05 13:07:36;;;;;;;4.38;2.78;;;24.20;97.70;;;;;;5087816;28;20549;-78